sensor_id;sensor_type;location;lat;lon;timestamp;P1;durP1;ratioP1;P2;durP2;ratioP2
38581;SDS011;24349;53.720;10.014;2023-04-25T00:02:03;19.10;;;6.70;;
38581;SDS011;24349;53.720;10.014;2023-04-25T00:04:29;24.67;;;6.90;;
38581;SDS011;24349;53.720;10.014;2023-04-25T00:06:54;18.52;;;5.20;;
38581;SDS011;24349;53.720;10.014;2023-04-25T00:09:21;24.80;;;5.88;;
38581;SDS011;24349;53.720;10.014;2023-04-25T00:11:47;20.45;;;5.28;;
38581;SDS011;24349;53.720;10.014;2023-04-25T00:14:13;18.15;;;5.30;;
38581;SDS011;24349;53.720;10.014;2023-04-25T00:16:39;21.23;;;4.78;;
38581;SDS011;24349;53.720;10.014;2023-04-25T00:19:06;24.17;;;5.80;;
38581;SDS011;24349;53.720;10.014;2023-04-25T00:21:32;18.50;;;4.88;;
38581;SDS011;24349;53.720;10.014;2023-04-25T00:23:58;19.27;;;4.65;;
38581;SDS011;24349;53.720;10.014;2023-04-25T00:26:24;16.85;;;5.15;;
38581;SDS011;24349;53.720;10.014;2023-04-25T00:28:50;20.38;;;5.13;;
38581;SDS011;24349;53.720;10.014;2023-04-25T00:31:15;21.52;;;4.85;;
38581;SDS011;24349;53.720;10.014;2023-04-25T00:33:41;21.42;;;5.72;;
38581;SDS011;24349;53.720;10.014;2023-04-25T00:36:07;22.05;;;4.68;;
38581;SDS011;24349;53.720;10.014;2023-04-25T00:38:33;24.70;;;5.60;;
38581;SDS011;24349;53.720;10.014;2023-04-25T00:40:58;25.63;;;4.82;;
38581;SDS011;24349;53.720;10.014;2023-04-25T00:43:25;17.90;;;4.18;;
38581;SDS011;24349;53.720;10.014;2023-04-25T00:45:51;20.40;;;5.03;;
38581;SDS011;24349;53.720;10.014;2023-04-25T00:48:18;21.75;;;5.22;;
38581;SDS011;24349;53.720;10.014;2023-04-25T00:50:48;20.02;;;4.82;;
38581;SDS011;24349;53.720;10.014;2023-04-25T00:55:43;21.92;;;4.90;;
38581;SDS011;24349;53.720;10.014;2023-04-25T00:58:09;24.38;;;5.93;;
38581;SDS011;24349;53.720;10.014;2023-04-25T01:00:35;13.75;;;3.92;;
38581;SDS011;24349;53.720;10.014;2023-04-25T01:03:01;22.73;;;4.82;;
38581;SDS011;24349;53.720;10.014;2023-04-25T01:05:28;15.70;;;4.40;;
38581;SDS011;24349;53.720;10.014;2023-04-25T01:07:54;15.25;;;4.32;;
38581;SDS011;24349;53.720;10.014;2023-04-25T01:10:20;17.67;;;4.50;;
38581;SDS011;24349;53.720;10.014;2023-04-25T01:12:46;25.77;;;4.78;;
38581;SDS011;24349;53.720;10.014;2023-04-25T01:15:12;24.63;;;5.30;;
38581;SDS011;24349;53.720;10.014;2023-04-25T01:17:37;20.33;;;4.72;;
38581;SDS011;24349;53.720;10.014;2023-04-25T01:20:06;31.38;;;5.78;;
38581;SDS011;24349;53.720;10.014;2023-04-25T01:22:34;25.90;;;5.38;;
38581;SDS011;24349;53.720;10.014;2023-04-25T01:25:00;26.33;;;5.15;;
38581;SDS011;24349;53.720;10.014;2023-04-25T01:27:26;22.60;;;5.30;;
38581;SDS011;24349;53.720;10.014;2023-04-25T01:29:53;24.85;;;6.10;;
38581;SDS011;24349;53.720;10.014;2023-04-25T01:32:19;22.40;;;5.30;;
38581;SDS011;24349;53.720;10.014;2023-04-25T01:34:47;21.90;;;4.97;;
38581;SDS011;24349;53.720;10.014;2023-04-25T01:37:13;22.30;;;4.28;;
38581;SDS011;24349;53.720;10.014;2023-04-25T01:39:38;19.55;;;5.05;;
38581;SDS011;24349;53.720;10.014;2023-04-25T01:42:04;17.00;;;4.50;;
38581;SDS011;24349;53.720;10.014;2023-04-25T01:44:29;24.17;;;5.40;;
38581;SDS011;24349;53.720;10.014;2023-04-25T01:46:55;24.35;;;5.60;;
38581;SDS011;24349;53.720;10.014;2023-04-25T01:49:21;22.75;;;5.05;;
38581;SDS011;24349;53.720;10.014;2023-04-25T01:51:47;25.25;;;5.00;;
38581;SDS011;24349;53.720;10.014;2023-04-25T01:54:12;19.85;;;4.50;;
38581;SDS011;24349;53.720;10.014;2023-04-25T01:56:38;20.05;;;4.60;;
38581;SDS011;24349;53.720;10.014;2023-04-25T01:59:05;20.58;;;4.97;;
38581;SDS011;24349;53.720;10.014;2023-04-25T02:01:31;21.17;;;4.30;;
38581;SDS011;24349;53.720;10.014;2023-04-25T02:03:57;21.45;;;4.40;;
38581;SDS011;24349;53.720;10.014;2023-04-25T02:06:23;19.92;;;4.63;;
38581;SDS011;24349;53.720;10.014;2023-04-25T02:08:48;17.85;;;4.00;;
38581;SDS011;24349;53.720;10.014;2023-04-25T02:11:14;21.58;;;4.47;;
38581;SDS011;24349;53.720;10.014;2023-04-25T02:13:40;15.98;;;4.15;;
38581;SDS011;24349;53.720;10.014;2023-04-25T02:16:05;19.13;;;4.85;;
38581;SDS011;24349;53.720;10.014;2023-04-25T02:18:31;14.35;;;3.92;;
38581;SDS011;24349;53.720;10.014;2023-04-25T02:20:58;24.17;;;4.28;;
38581;SDS011;24349;53.720;10.014;2023-04-25T02:23:24;17.83;;;4.40;;
38581;SDS011;24349;53.720;10.014;2023-04-25T02:25:50;18.92;;;4.05;;
38581;SDS011;24349;53.720;10.014;2023-04-25T02:28:16;20.30;;;4.35;;
38581;SDS011;24349;53.720;10.014;2023-04-25T02:30:42;21.15;;;5.10;;
38581;SDS011;24349;53.720;10.014;2023-04-25T02:33:08;16.63;;;4.22;;
38581;SDS011;24349;53.720;10.014;2023-04-25T02:35:33;20.55;;;4.50;;
38581;SDS011;24349;53.720;10.014;2023-04-25T02:37:59;18.80;;;4.28;;
38581;SDS011;24349;53.720;10.014;2023-04-25T02:40:24;16.35;;;3.85;;
38581;SDS011;24349;53.720;10.014;2023-04-25T02:42:50;18.60;;;4.07;;
38581;SDS011;24349;53.720;10.014;2023-04-25T02:45:16;22.00;;;4.60;;
38581;SDS011;24349;53.720;10.014;2023-04-25T02:47:42;19.23;;;4.30;;
38581;SDS011;24349;53.720;10.014;2023-04-25T02:50:07;21.60;;;4.88;;
38581;SDS011;24349;53.720;10.014;2023-04-25T02:52:33;17.70;;;4.72;;
38581;SDS011;24349;53.720;10.014;2023-04-25T02:54:59;21.70;;;4.25;;
38581;SDS011;24349;53.720;10.014;2023-04-25T02:57:24;17.70;;;4.55;;
38581;SDS011;24349;53.720;10.014;2023-04-25T02:59:50;22.13;;;5.63;;
38581;SDS011;24349;53.720;10.014;2023-04-25T03:02:15;21.17;;;4.80;;
38581;SDS011;24349;53.720;10.014;2023-04-25T03:04:41;14.95;;;4.10;;
38581;SDS011;24349;53.720;10.014;2023-04-25T03:07:07;18.90;;;4.15;;
38581;SDS011;24349;53.720;10.014;2023-04-25T03:09:33;17.35;;;3.63;;
38581;SDS011;24349;53.720;10.014;2023-04-25T03:11:58;19.13;;;4.80;;
38581;SDS011;24349;53.720;10.014;2023-04-25T03:14:25;22.45;;;4.53;;
38581;SDS011;24349;53.720;10.014;2023-04-25T03:16:50;17.48;;;5.05;;
38581;SDS011;24349;53.720;10.014;2023-04-25T03:19:16;21.05;;;4.55;;
38581;SDS011;24349;53.720;10.014;2023-04-25T03:21:42;20.17;;;4.13;;
38581;SDS011;24349;53.720;10.014;2023-04-25T03:24:08;20.92;;;4.72;;
38581;SDS011;24349;53.720;10.014;2023-04-25T03:26:33;22.63;;;6.55;;
38581;SDS011;24349;53.720;10.014;2023-04-25T03:28:59;22.30;;;4.22;;
38581;SDS011;24349;53.720;10.014;2023-04-25T03:31:25;16.73;;;3.75;;
38581;SDS011;24349;53.720;10.014;2023-04-25T03:33:50;18.55;;;4.75;;
38581;SDS011;24349;53.720;10.014;2023-04-25T03:36:16;20.95;;;4.50;;
38581;SDS011;24349;53.720;10.014;2023-04-25T03:38:42;23.42;;;5.78;;
38581;SDS011;24349;53.720;10.014;2023-04-25T03:41:07;18.67;;;4.30;;
38581;SDS011;24349;53.720;10.014;2023-04-25T03:43:33;20.92;;;4.40;;
38581;SDS011;24349;53.720;10.014;2023-04-25T03:45:59;14.10;;;4.47;;
38581;SDS011;24349;53.720;10.014;2023-04-25T03:48:25;20.95;;;5.20;;
38581;SDS011;24349;53.720;10.014;2023-04-25T03:50:51;18.90;;;4.05;;
38581;SDS011;24349;53.720;10.014;2023-04-25T03:53:17;20.60;;;4.75;;
38581;SDS011;24349;53.720;10.014;2023-04-25T03:55:43;23.88;;;4.72;;
38581;SDS011;24349;53.720;10.014;2023-04-25T03:58:08;19.13;;;3.80;;
38581;SDS011;24349;53.720;10.014;2023-04-25T04:00:34;17.63;;;5.07;;
38581;SDS011;24349;53.720;10.014;2023-04-25T04:03:00;18.00;;;4.32;;
38581;SDS011;24349;53.720;10.014;2023-04-25T04:05:26;18.70;;;3.95;;
38581;SDS011;24349;53.720;10.014;2023-04-25T04:07:52;17.85;;;3.28;;
38581;SDS011;24349;53.720;10.014;2023-04-25T04:10:18;16.63;;;3.45;;
38581;SDS011;24349;53.720;10.014;2023-04-25T04:12:44;15.15;;;4.25;;
38581;SDS011;24349;53.720;10.014;2023-04-25T04:15:09;14.63;;;4.00;;
38581;SDS011;24349;53.720;10.014;2023-04-25T04:17:35;23.90;;;5.72;;
38581;SDS011;24349;53.720;10.014;2023-04-25T04:20:01;14.23;;;3.80;;
38581;SDS011;24349;53.720;10.014;2023-04-25T04:22:28;18.25;;;3.65;;
38581;SDS011;24349;53.720;10.014;2023-04-25T04:24:54;17.92;;;4.15;;
38581;SDS011;24349;53.720;10.014;2023-04-25T04:27:21;15.80;;;3.58;;
38581;SDS011;24349;53.720;10.014;2023-04-25T04:29:48;16.60;;;4.45;;
38581;SDS011;24349;53.720;10.014;2023-04-25T04:32:15;16.58;;;3.38;;
38581;SDS011;24349;53.720;10.014;2023-04-25T04:34:42;14.48;;;4.25;;
38581;SDS011;24349;53.720;10.014;2023-04-25T04:37:08;17.63;;;4.00;;
38581;SDS011;24349;53.720;10.014;2023-04-25T04:39:34;12.95;;;3.40;;
38581;SDS011;24349;53.720;10.014;2023-04-25T04:42:00;16.65;;;3.85;;
38581;SDS011;24349;53.720;10.014;2023-04-25T04:44:29;16.30;;;3.65;;
38581;SDS011;24349;53.720;10.014;2023-04-25T04:46:57;14.15;;;3.30;;
38581;SDS011;24349;53.720;10.014;2023-04-25T04:49:23;13.88;;;3.13;;
38581;SDS011;24349;53.720;10.014;2023-04-25T04:51:49;17.27;;;3.90;;
38581;SDS011;24349;53.720;10.014;2023-04-25T04:54:15;14.98;;;4.00;;
38581;SDS011;24349;53.720;10.014;2023-04-25T04:56:40;15.85;;;3.67;;
38581;SDS011;24349;53.720;10.014;2023-04-25T04:59:06;17.55;;;3.55;;
38581;SDS011;24349;53.720;10.014;2023-04-25T05:01:32;14.02;;;3.13;;
38581;SDS011;24349;53.720;10.014;2023-04-25T05:04:00;14.25;;;3.20;;
38581;SDS011;24349;53.720;10.014;2023-04-25T05:06:28;17.13;;;3.83;;
38581;SDS011;24349;53.720;10.014;2023-04-25T05:08:56;15.90;;;3.53;;
38581;SDS011;24349;53.720;10.014;2023-04-25T05:11:22;14.13;;;3.53;;
38581;SDS011;24349;53.720;10.014;2023-04-25T05:13:52;16.35;;;3.90;;
38581;SDS011;24349;53.720;10.014;2023-04-25T05:16:18;18.90;;;3.63;;
38581;SDS011;24349;53.720;10.014;2023-04-25T05:18:44;17.60;;;3.50;;
38581;SDS011;24349;53.720;10.014;2023-04-25T05:21:10;13.98;;;3.17;;
38581;SDS011;24349;53.720;10.014;2023-04-25T05:23:36;16.02;;;4.10;;
38581;SDS011;24349;53.720;10.014;2023-04-25T05:26:01;14.35;;;3.55;;
38581;SDS011;24349;53.720;10.014;2023-04-25T05:28:27;11.20;;;3.30;;
38581;SDS011;24349;53.720;10.014;2023-04-25T05:30:53;14.85;;;3.35;;
38581;SDS011;24349;53.720;10.014;2023-04-25T05:33:18;14.52;;;2.90;;
38581;SDS011;24349;53.720;10.014;2023-04-25T05:35:44;13.13;;;3.53;;
38581;SDS011;24349;53.720;10.014;2023-04-25T05:38:10;12.55;;;3.05;;
38581;SDS011;24349;53.720;10.014;2023-04-25T05:40:36;9.13;;;3.10;;
38581;SDS011;24349;53.720;10.014;2023-04-25T05:43:01;11.85;;;3.50;;
38581;SDS011;24349;53.720;10.014;2023-04-25T05:45:27;11.52;;;2.80;;
38581;SDS011;24349;53.720;10.014;2023-04-25T05:47:52;14.98;;;3.28;;
38581;SDS011;24349;53.720;10.014;2023-04-25T05:50:18;13.25;;;2.97;;
38581;SDS011;24349;53.720;10.014;2023-04-25T05:52:44;17.00;;;4.07;;
38581;SDS011;24349;53.720;10.014;2023-04-25T05:55:09;13.40;;;3.20;;
38581;SDS011;24349;53.720;10.014;2023-04-25T05:57:35;14.95;;;3.80;;
38581;SDS011;24349;53.720;10.014;2023-04-25T06:00:01;11.35;;;3.17;;
38581;SDS011;24349;53.720;10.014;2023-04-25T06:02:26;15.40;;;4.30;;
38581;SDS011;24349;53.720;10.014;2023-04-25T06:04:52;14.50;;;3.58;;
38581;SDS011;24349;53.720;10.014;2023-04-25T06:07:18;14.48;;;3.08;;
38581;SDS011;24349;53.720;10.014;2023-04-25T06:09:45;15.07;;;3.45;;
38581;SDS011;24349;53.720;10.014;2023-04-25T06:12:10;17.55;;;3.72;;
38581;SDS011;24349;53.720;10.014;2023-04-25T06:14:36;13.98;;;3.40;;
38581;SDS011;24349;53.720;10.014;2023-04-25T06:17:03;15.05;;;3.50;;
38581;SDS011;24349;53.720;10.014;2023-04-25T06:19:33;13.43;;;3.10;;
38581;SDS011;24349;53.720;10.014;2023-04-25T06:22:00;11.68;;;3.00;;
38581;SDS011;24349;53.720;10.014;2023-04-25T06:24:26;17.50;;;3.30;;
38581;SDS011;24349;53.720;10.014;2023-04-25T06:26:52;19.17;;;4.07;;
38581;SDS011;24349;53.720;10.014;2023-04-25T06:29:18;15.32;;;4.10;;
38581;SDS011;24349;53.720;10.014;2023-04-25T06:31:43;19.08;;;4.00;;
38581;SDS011;24349;53.720;10.014;2023-04-25T06:34:09;15.68;;;3.53;;
38581;SDS011;24349;53.720;10.014;2023-04-25T06:36:35;15.40;;;3.60;;
38581;SDS011;24349;53.720;10.014;2023-04-25T06:39:00;16.33;;;3.70;;
38581;SDS011;24349;53.720;10.014;2023-04-25T06:41:26;12.32;;;3.33;;
38581;SDS011;24349;53.720;10.014;2023-04-25T06:43:51;11.50;;;3.78;;
38581;SDS011;24349;53.720;10.014;2023-04-25T06:46:17;15.10;;;3.50;;
38581;SDS011;24349;53.720;10.014;2023-04-25T06:48:43;14.07;;;3.75;;
38581;SDS011;24349;53.720;10.014;2023-04-25T06:51:09;14.35;;;3.53;;
38581;SDS011;24349;53.720;10.014;2023-04-25T06:53:34;13.88;;;3.58;;
38581;SDS011;24349;53.720;10.014;2023-04-25T06:56:00;12.23;;;3.70;;
38581;SDS011;24349;53.720;10.014;2023-04-25T06:58:25;14.07;;;3.22;;
38581;SDS011;24349;53.720;10.014;2023-04-25T07:00:51;14.32;;;3.28;;
38581;SDS011;24349;53.720;10.014;2023-04-25T07:03:17;16.20;;;3.20;;
38581;SDS011;24349;53.720;10.014;2023-04-25T07:05:42;10.18;;;3.20;;
38581;SDS011;24349;53.720;10.014;2023-04-25T07:08:08;12.43;;;3.22;;
38581;SDS011;24349;53.720;10.014;2023-04-25T07:10:34;16.90;;;3.08;;
38581;SDS011;24349;53.720;10.014;2023-04-25T07:13:00;12.00;;;2.30;;
38581;SDS011;24349;53.720;10.014;2023-04-25T07:15:25;9.73;;;2.22;;
38581;SDS011;24349;53.720;10.014;2023-04-25T07:17:51;15.75;;;2.42;;
38581;SDS011;24349;53.720;10.014;2023-04-25T07:20:17;11.90;;;2.67;;
38581;SDS011;24349;53.720;10.014;2023-04-25T07:22:42;7.45;;;2.20;;
38581;SDS011;24349;53.720;10.014;2023-04-25T07:25:08;8.50;;;2.20;;
38581;SDS011;24349;53.720;10.014;2023-04-25T07:27:34;10.05;;;2.28;;
38581;SDS011;24349;53.720;10.014;2023-04-25T07:30:00;8.90;;;2.45;;
38581;SDS011;24349;53.720;10.014;2023-04-25T07:32:26;10.60;;;2.80;;
38581;SDS011;24349;53.720;10.014;2023-04-25T07:34:52;9.73;;;3.00;;
38581;SDS011;24349;53.720;10.014;2023-04-25T07:37:17;9.93;;;2.58;;
38581;SDS011;24349;53.720;10.014;2023-04-25T07:39:43;13.13;;;2.30;;
38581;SDS011;24349;53.720;10.014;2023-04-25T07:42:11;12.95;;;3.60;;
38581;SDS011;24349;53.720;10.014;2023-04-25T07:44:37;12.27;;;2.20;;
38581;SDS011;24349;53.720;10.014;2023-04-25T07:47:07;10.98;;;2.92;;
38581;SDS011;24349;53.720;10.014;2023-04-25T07:49:36;11.63;;;2.58;;
38581;SDS011;24349;53.720;10.014;2023-04-25T07:52:02;11.55;;;2.28;;
38581;SDS011;24349;53.720;10.014;2023-04-25T07:54:30;15.20;;;2.45;;
38581;SDS011;24349;53.720;10.014;2023-04-25T07:56:56;12.48;;;2.55;;
38581;SDS011;24349;53.720;10.014;2023-04-25T07:59:21;13.57;;;2.95;;
38581;SDS011;24349;53.720;10.014;2023-04-25T08:01:47;11.25;;;2.72;;
38581;SDS011;24349;53.720;10.014;2023-04-25T08:04:13;14.07;;;3.17;;
38581;SDS011;24349;53.720;10.014;2023-04-25T08:06:39;11.60;;;2.60;;
38581;SDS011;24349;53.720;10.014;2023-04-25T08:09:05;14.82;;;2.95;;
38581;SDS011;24349;53.720;10.014;2023-04-25T08:11:31;18.35;;;3.03;;
38581;SDS011;24349;53.720;10.014;2023-04-25T08:13:57;14.25;;;3.13;;
38581;SDS011;24349;53.720;10.014;2023-04-25T08:16:22;12.93;;;2.67;;
38581;SDS011;24349;53.720;10.014;2023-04-25T08:18:48;14.57;;;2.47;;
38581;SDS011;24349;53.720;10.014;2023-04-25T08:21:15;8.35;;;2.17;;
38581;SDS011;24349;53.720;10.014;2023-04-25T08:23:40;11.05;;;2.45;;
38581;SDS011;24349;53.720;10.014;2023-04-25T08:26:06;12.15;;;4.03;;
38581;SDS011;24349;53.720;10.014;2023-04-25T08:28:32;9.75;;;2.40;;
38581;SDS011;24349;53.720;10.014;2023-04-25T08:30:58;14.52;;;4.82;;
38581;SDS011;24349;53.720;10.014;2023-04-25T08:33:23;16.35;;;7.70;;
38581;SDS011;24349;53.720;10.014;2023-04-25T08:35:49;8.05;;;3.17;;
38581;SDS011;24349;53.720;10.014;2023-04-25T08:38:15;20.33;;;7.45;;
38581;SDS011;24349;53.720;10.014;2023-04-25T08:40:42;17.02;;;3.97;;
38581;SDS011;24349;53.720;10.014;2023-04-25T08:43:08;13.10;;;3.70;;
38581;SDS011;24349;53.720;10.014;2023-04-25T08:45:41;11.25;;;3.75;;
38581;SDS011;24349;53.720;10.014;2023-04-25T08:48:07;16.27;;;4.15;;
38581;SDS011;24349;53.720;10.014;2023-04-25T08:50:38;13.15;;;3.95;;
38581;SDS011;24349;53.720;10.014;2023-04-25T08:53:05;12.05;;;3.13;;
38581;SDS011;24349;53.720;10.014;2023-04-25T08:55:36;10.68;;;3.15;;
38581;SDS011;24349;53.720;10.014;2023-04-25T08:58:04;11.25;;;2.63;;
38581;SDS011;24349;53.720;10.014;2023-04-25T09:00:30;9.10;;;2.75;;
38581;SDS011;24349;53.720;10.014;2023-04-25T09:02:56;10.82;;;2.50;;
38581;SDS011;24349;53.720;10.014;2023-04-25T09:05:23;11.10;;;2.75;;
38581;SDS011;24349;53.720;10.014;2023-04-25T09:07:49;12.80;;;3.08;;
38581;SDS011;24349;53.720;10.014;2023-04-25T09:10:15;12.63;;;2.65;;
38581;SDS011;24349;53.720;10.014;2023-04-25T09:12:40;13.43;;;2.30;;
38581;SDS011;24349;53.720;10.014;2023-04-25T09:15:08;10.85;;;2.53;;
38581;SDS011;24349;53.720;10.014;2023-04-25T09:17:35;13.65;;;2.95;;
38581;SDS011;24349;53.720;10.014;2023-04-25T09:20:05;11.82;;;2.40;;
38581;SDS011;24349;53.720;10.014;2023-04-25T09:22:36;9.93;;;2.15;;
38581;SDS011;24349;53.720;10.014;2023-04-25T09:25:03;9.10;;;2.10;;
38581;SDS011;24349;53.720;10.014;2023-04-25T09:27:32;11.10;;;2.22;;
38581;SDS011;24349;53.720;10.014;2023-04-25T09:29:58;8.77;;;2.13;;
38581;SDS011;24349;53.720;10.014;2023-04-25T09:32:25;9.00;;;1.98;;
38581;SDS011;24349;53.720;10.014;2023-04-25T09:34:52;8.63;;;1.77;;
38581;SDS011;24349;53.720;10.014;2023-04-25T09:39:46;8.63;;;2.22;;
38581;SDS011;24349;53.720;10.014;2023-04-25T09:42:13;7.50;;;1.88;;
38581;SDS011;24349;53.720;10.014;2023-04-25T09:44:44;9.52;;;2.00;;
38581;SDS011;24349;53.720;10.014;2023-04-25T09:47:11;10.52;;;1.92;;
38581;SDS011;24349;53.720;10.014;2023-04-25T09:49:39;9.93;;;2.13;;
38581;SDS011;24349;53.720;10.014;2023-04-25T09:52:07;9.48;;;2.20;;
38581;SDS011;24349;53.720;10.014;2023-04-25T09:54:33;9.55;;;2.10;;
38581;SDS011;24349;53.720;10.014;2023-04-25T09:57:00;7.82;;;2.10;;
38581;SDS011;24349;53.720;10.014;2023-04-25T09:59:39;8.45;;;1.88;;
38581;SDS011;24349;53.720;10.014;2023-04-25T10:02:08;8.82;;;2.00;;
38581;SDS011;24349;53.720;10.014;2023-04-25T10:04:34;10.00;;;2.00;;
38581;SDS011;24349;53.720;10.014;2023-04-25T10:07:07;12.80;;;2.38;;
38581;SDS011;24349;53.720;10.014;2023-04-25T10:12:02;8.73;;;1.90;;
38581;SDS011;24349;53.720;10.014;2023-04-25T10:14:29;8.10;;;1.90;;
38581;SDS011;24349;53.720;10.014;2023-04-25T10:16:57;9.18;;;2.05;;
38581;SDS011;24349;53.720;10.014;2023-04-25T10:19:23;9.73;;;2.10;;
38581;SDS011;24349;53.720;10.014;2023-04-25T10:22:11;8.88;;;1.95;;
38581;SDS011;24349;53.720;10.014;2023-04-25T10:24:57;7.78;;;1.92;;
38581;SDS011;24349;53.720;10.014;2023-04-25T10:27:23;9.73;;;1.98;;
38581;SDS011;24349;53.720;10.014;2023-04-25T10:30:02;6.85;;;1.85;;
38581;SDS011;24349;53.720;10.014;2023-04-25T10:32:44;9.02;;;2.08;;
38581;SDS011;24349;53.720;10.014;2023-04-25T10:35:14;11.05;;;2.33;;
38581;SDS011;24349;53.720;10.014;2023-04-25T10:40:28;7.82;;;2.05;;
38581;SDS011;24349;53.720;10.014;2023-04-25T10:42:55;11.73;;;2.30;;
38581;SDS011;24349;53.720;10.014;2023-04-25T10:45:21;7.10;;;1.73;;
38581;SDS011;24349;53.720;10.014;2023-04-25T10:47:47;8.52;;;2.08;;
38581;SDS011;24349;53.720;10.014;2023-04-25T10:50:16;7.47;;;1.70;;
38581;SDS011;24349;53.720;10.014;2023-04-25T10:52:41;8.95;;;1.70;;
38581;SDS011;24349;53.720;10.014;2023-04-25T10:55:07;7.78;;;2.35;;
38581;SDS011;24349;53.720;10.014;2023-04-25T10:57:37;7.07;;;1.65;;
38581;SDS011;24349;53.720;10.014;2023-04-25T11:00:13;10.27;;;2.42;;
38581;SDS011;24349;53.720;10.014;2023-04-25T11:02:58;12.40;;;2.13;;
38581;SDS011;24349;53.720;10.014;2023-04-25T11:07:51;8.23;;;1.70;;
38581;SDS011;24349;53.720;10.014;2023-04-25T11:10:19;11.23;;;2.20;;
38581;SDS011;24349;53.720;10.014;2023-04-25T11:12:45;10.23;;;2.05;;
38581;SDS011;24349;53.720;10.014;2023-04-25T11:15:12;8.20;;;2.00;;
38581;SDS011;24349;53.720;10.014;2023-04-25T11:17:38;8.00;;;1.70;;
38581;SDS011;24349;53.720;10.014;2023-04-25T11:20:05;9.48;;;1.80;;
38581;SDS011;24349;53.720;10.014;2023-04-25T11:22:36;6.20;;;1.73;;
38581;SDS011;24349;53.720;10.014;2023-04-25T11:25:04;8.98;;;1.75;;
38581;SDS011;24349;53.720;10.014;2023-04-25T11:27:31;9.05;;;1.75;;
38581;SDS011;24349;53.720;10.014;2023-04-25T11:29:56;12.63;;;2.30;;
38581;SDS011;24349;53.720;10.014;2023-04-25T11:32:23;8.85;;;1.92;;
38581;SDS011;24349;53.720;10.014;2023-04-25T11:34:49;9.63;;;2.10;;
38581;SDS011;24349;53.720;10.014;2023-04-25T11:37:14;10.02;;;2.20;;
38581;SDS011;24349;53.720;10.014;2023-04-25T11:39:44;11.07;;;2.28;;
38581;SDS011;24349;53.720;10.014;2023-04-25T11:42:13;10.65;;;1.85;;
38581;SDS011;24349;53.720;10.014;2023-04-25T11:44:39;8.80;;;2.03;;
38581;SDS011;24349;53.720;10.014;2023-04-25T11:47:05;7.15;;;1.55;;
38581;SDS011;24349;53.720;10.014;2023-04-25T11:49:31;7.25;;;1.65;;
38581;SDS011;24349;53.720;10.014;2023-04-25T11:51:57;6.75;;;1.67;;
38581;SDS011;24349;53.720;10.014;2023-04-25T11:54:22;5.28;;;1.67;;
38581;SDS011;24349;53.720;10.014;2023-04-25T11:56:48;6.88;;;1.67;;
38581;SDS011;24349;53.720;10.014;2023-04-25T11:59:14;5.97;;;1.23;;
38581;SDS011;24349;53.720;10.014;2023-04-25T12:01:46;7.40;;;1.83;;
38581;SDS011;24349;53.720;10.014;2023-04-25T12:04:15;10.95;;;1.80;;
38581;SDS011;24349;53.720;10.014;2023-04-25T12:06:45;6.85;;;1.35;;
38581;SDS011;24349;53.720;10.014;2023-04-25T12:09:13;8.07;;;1.55;;
38581;SDS011;24349;53.720;10.014;2023-04-25T12:11:41;8.93;;;1.88;;
38581;SDS011;24349;53.720;10.014;2023-04-25T12:14:11;9.40;;;1.70;;
38581;SDS011;24349;53.720;10.014;2023-04-25T12:16:45;6.45;;;1.65;;
38581;SDS011;24349;53.720;10.014;2023-04-25T12:19:15;6.65;;;1.52;;
38581;SDS011;24349;53.720;10.014;2023-04-25T12:21:42;10.57;;;2.15;;
38581;SDS011;24349;53.720;10.014;2023-04-25T12:24:15;6.45;;;1.42;;
38581;SDS011;24349;53.720;10.014;2023-04-25T12:26:51;11.75;;;2.13;;
38581;SDS011;24349;53.720;10.014;2023-04-25T12:29:25;9.13;;;1.70;;
38581;SDS011;24349;53.720;10.014;2023-04-25T12:31:54;8.30;;;2.03;;
38581;SDS011;24349;53.720;10.014;2023-04-25T12:34:21;7.85;;;1.85;;
38581;SDS011;24349;53.720;10.014;2023-04-25T12:36:47;7.63;;;1.50;;
38581;SDS011;24349;53.720;10.014;2023-04-25T12:39:17;6.90;;;1.55;;
38581;SDS011;24349;53.720;10.014;2023-04-25T12:41:44;7.05;;;1.92;;
38581;SDS011;24349;53.720;10.014;2023-04-25T12:44:11;8.77;;;1.67;;
38581;SDS011;24349;53.720;10.014;2023-04-25T12:46:37;7.47;;;1.92;;
38581;SDS011;24349;53.720;10.014;2023-04-25T12:49:03;9.73;;;2.08;;
38581;SDS011;24349;53.720;10.014;2023-04-25T12:51:30;10.38;;;2.15;;
38581;SDS011;24349;53.720;10.014;2023-04-25T12:53:57;9.52;;;1.73;;
38581;SDS011;24349;53.720;10.014;2023-04-25T12:56:24;6.03;;;1.60;;
38581;SDS011;24349;53.720;10.014;2023-04-25T12:58:50;6.68;;;1.77;;
38581;SDS011;24349;53.720;10.014;2023-04-25T13:01:17;6.97;;;1.85;;
38581;SDS011;24349;53.720;10.014;2023-04-25T13:03:42;7.18;;;1.73;;
38581;SDS011;24349;53.720;10.014;2023-04-25T13:06:08;6.82;;;1.52;;
38581;SDS011;24349;53.720;10.014;2023-04-25T13:08:34;6.05;;;1.50;;
38581;SDS011;24349;53.720;10.014;2023-04-25T13:11:01;6.63;;;1.60;;
38581;SDS011;24349;53.720;10.014;2023-04-25T13:13:28;7.80;;;1.70;;
38581;SDS011;24349;53.720;10.014;2023-04-25T13:15:54;7.57;;;1.85;;
38581;SDS011;24349;53.720;10.014;2023-04-25T13:18:20;8.00;;;2.15;;
38581;SDS011;24349;53.720;10.014;2023-04-25T13:20:46;8.80;;;2.20;;
38581;SDS011;24349;53.720;10.014;2023-04-25T13:23:11;12.27;;;2.53;;
38581;SDS011;24349;53.720;10.014;2023-04-25T13:25:37;7.32;;;3.05;;
38581;SDS011;24349;53.720;10.014;2023-04-25T13:28:03;9.50;;;2.42;;
38581;SDS011;24349;53.720;10.014;2023-04-25T13:30:29;9.70;;;2.28;;
38581;SDS011;24349;53.720;10.014;2023-04-25T13:32:55;7.78;;;2.10;;
38581;SDS011;24349;53.720;10.014;2023-04-25T13:35:22;9.57;;;2.58;;
38581;SDS011;24349;53.720;10.014;2023-04-25T13:37:47;9.85;;;2.05;;
38581;SDS011;24349;53.720;10.014;2023-04-25T13:40:13;8.65;;;2.13;;
38581;SDS011;24349;53.720;10.014;2023-04-25T13:42:39;8.73;;;2.25;;
38581;SDS011;24349;53.720;10.014;2023-04-25T13:45:05;9.90;;;2.60;;
38581;SDS011;24349;53.720;10.014;2023-04-25T13:47:32;10.80;;;2.30;;
38581;SDS011;24349;53.720;10.014;2023-04-25T13:49:57;14.15;;;2.50;;
38581;SDS011;24349;53.720;10.014;2023-04-25T13:52:23;8.65;;;2.42;;
38581;SDS011;24349;53.720;10.014;2023-04-25T13:54:52;8.95;;;2.30;;
38581;SDS011;24349;53.720;10.014;2023-04-25T13:57:18;6.78;;;2.08;;
38581;SDS011;24349;53.720;10.014;2023-04-25T13:59:43;7.28;;;1.85;;
38581;SDS011;24349;53.720;10.014;2023-04-25T14:02:09;6.50;;;1.80;;
38581;SDS011;24349;53.720;10.014;2023-04-25T14:04:35;5.43;;;1.50;;
38581;SDS011;24349;53.720;10.014;2023-04-25T14:07:00;6.75;;;1.85;;
38581;SDS011;24349;53.720;10.014;2023-04-25T14:09:27;7.97;;;2.08;;
38581;SDS011;24349;53.720;10.014;2023-04-25T14:11:54;7.22;;;1.67;;
38581;SDS011;24349;53.720;10.014;2023-04-25T14:14:20;7.07;;;1.63;;
38581;SDS011;24349;53.720;10.014;2023-04-25T14:16:47;6.90;;;1.67;;
38581;SDS011;24349;53.720;10.014;2023-04-25T14:19:13;7.95;;;1.95;;
38581;SDS011;24349;53.720;10.014;2023-04-25T14:21:39;5.80;;;1.77;;
38581;SDS011;24349;53.720;10.014;2023-04-25T14:24:05;7.10;;;1.70;;
38581;SDS011;24349;53.720;10.014;2023-04-25T14:26:32;6.35;;;1.85;;
38581;SDS011;24349;53.720;10.014;2023-04-25T14:28:58;7.95;;;1.88;;
38581;SDS011;24349;53.720;10.014;2023-04-25T14:31:24;9.73;;;1.92;;
38581;SDS011;24349;53.720;10.014;2023-04-25T14:33:50;9.63;;;2.38;;
38581;SDS011;24349;53.720;10.014;2023-04-25T14:36:15;8.52;;;1.80;;